Terminal Aerodrome Forecast
Issued by NWS

Home | Current Version | Previous Version | Text Only | Print | Product List | Glossary On
Versions: 1 2 3 4 5 6 7 8 9 10 11 12 13 14 15
000
FTUS46 KSTO 160500
TAFSAC
TAF
KSAC 160520Z 1606/1706 VRB06KT P6SM FEW200
     FM161600 34010G16KT P6SM SCT200
     FM161900 33013G21KT P6SM SKC
     FM162200 33011KT P6SM SKC
     FM170200 28005KT P6SM SKC=

USA.gov is the U.S. government's official web portal to all federal, state and local government web resources and services.